Observations for PISA CIV IT-AFB, Italy (LIRP)

LIRP 160715Z 10007KT CAVOK 13/07 Q1023 NOSIG
LIRP 160645Z 11004KT 060V160 CAVOK 12/06 Q1022 NOSIG
LIRP 160615Z 11005KT 070V180 CAVOK 12/07 Q1022 NOSIG
LIRP 160545Z 10008KT CAVOK 12/07 Q1022 NOSIG
LIRP 160515Z 10008KT CAVOK 13/07 Q1022 NOSIG
LIRP 160445Z 11009KT CAVOK 13/07 Q1022 NOSIG
LIRP 160415Z 09011KT CAVOK 13/08 Q1022 NOSIG
LIRP 160345Z 11007KT CAVOK 13/08 Q1022 NOSIG
LIRP 160315Z 10009KT CAVOK 13/08 Q1022 NOSIG
LIRP 160245Z 11008KT CAVOK 13/08 Q1022 NOSIG
LIRP 160215Z 10008KT CAVOK 13/09 Q1022 NOSIG
LIRP 160145Z 10011KT CAVOK 13/10 Q1022 NOSIG
LIRP 160115Z 10008KT CAVOK 12/09 Q1022 NOSIG
LIRP 160045Z 11007KT CAVOK 12/09 Q1022 NOSIG
LIRP 160015Z 11005KT CAVOK 12/10 Q1022 NOSIG
LIRP 152345Z 11008KT CAVOK 12/10 Q1022 NOSIG
LIRP 152315Z 12009KT CAVOK 12/10 Q1022 NOSIG
LIRP 152245Z 13011KT CAVOK 12/09 Q1022 NOSIG
LIRP 152215Z 14009KT CAVOK 12/09 Q1022 NOSIG
LIRP 152145Z 14007KT CAVOK 12/09 Q1022 NOSIG
LIRP 152115Z 12010KT CAVOK 13/10 Q1022 NOSIG
LIRP 152045Z 13009KT CAVOK 13/10 Q1022 NOSIG
LIRP 152015Z 14007KT CAVOK 13/10 Q1022 NOSIG
LIRP 151945Z 13008KT CAVOK 13/09 Q1022 NOSIG
LIRP 151915Z 14007KT CAVOK 12/10 Q1022 NOSIG
LIRP 151845Z 13007KT CAVOK 12/10 Q1022 NOSIG
LIRP 151815Z 15005KT CAVOK 13/10 Q1022 NOSIG
LIRP 151745Z 14003KT CAVOK 14/10 Q1022 NOSIG
LIRP 151715Z 09006KT CAVOK 15/10 Q1022 NOSIG
LIRP 151645Z 09005KT CAVOK 16/10 Q1022 NOSIG
LIRP 151615Z 12008KT CAVOK 17/10 Q1022 NOSIG
LIRP 151545Z 12007KT CAVOK 18/10 Q1022 NOSIG
LIRP 151515Z 12007KT CAVOK 19/09 Q1022 NOSIG
LIRP 151445Z 12008KT CAVOK 19/10 Q1022 NOSIG
LIRP 151415Z 12008KT CAVOK 20/09 Q1022 NOSIG
LIRP 151345Z 13007KT CAVOK 20/09 Q1022 NOSIG
LIRP 151315Z 12005KT CAVOK 20/10 Q1022 NOSIG
LIRP 151245Z 12005KT CAVOK 20/10 Q1022 NOSIG
LIRP 151215Z 12009KT CAVOK 19/11 Q1023 NOSIG
LIRP 151145Z 12009KT CAVOK 19/11 Q1023 NOSIG
LIRP 151115Z 12008KT CAVOK 19/11 Q1023 NOSIG
LIRP 151045Z 12008KT CAVOK 18/11 Q1024 NOSIG
LIRP 151015Z 10008KT CAVOK 18/11 Q1024 NOSIG
LIRP 150945Z 12007KT CAVOK 17/12 Q1024 NOSIG
LIRP 150915Z 10002KT CAVOK 15/12 Q1024 NOSIG
LIRP 150845Z 09003KT CAVOK 14/12 Q1024 NOSIG
LIRP 150815Z 12004KT CAVOK 13/12 Q1024 NOSIG
LIRP 150745Z 14004KT CAVOK 12/12 Q1024 NOSIG
LIRP 150715Z 13003KT CAVOK 10/10 Q1024 NOSIG
LIRP 150645Z 14004KT CAVOK 08/08 Q1024 NOSIG